Monument Lake Park, Colorado
Current Conditions -  °F | °C
As of 1:49 PM on Sunday 21 Dec 2014 (Local Time) from KVTP Reporting Station
Clear Clear  
Wind Chill: -9°   Ceiling: Unl
Heat Index: -3°   Visibility: 10mi
Dew Point: -7°   Wind: 14mph
Humidity: 74%   Direction: 200°SSW
Pressure: 29.74"   Gusts: 32mph
Location:  37.1566°N, 104.956°W
Report Text: KVTP 212049Z AUTO 20012G28KT 170V290 10SM CLR M03/M07 A2974 RMK AO2
Loading
Personal Weather Stations






























Interactive Weather Map New forecast layout! Learn more

10-Day Weather Forecast

Advertisements
Track Severe Weather on mobile